Overview Statistics Trail Chart Weather Telemetry Raw packets
 

This is the latest recevied weather packets stored in our database for station/object KB1RMA-4. If no packets are shown the sender has not sent any weather packets the latest 10 day(s).

<< 104 105 106 107 108 109 110 >>
Time Temp. Humidity Pressure Rain* Wind** Luminosity Snow
1787849749 29.44° C 55% 1016.9 hPa 0 mm - 719 W/m² -
1787849444 28.89° C 56% 1017.2 hPa 0 mm - 667 W/m² -
1787849143 28.89° C 58% 1017.1 hPa 0 mm - 703 W/m² -
1787848838 28.33° C 60% 1017.3 hPa 0 mm - 710 W/m² -
1787848538 28.89° C 59% 1017.4 hPa 0 mm - 195 W/m² -
1787848232 28.33° C 60% 1017.4 hPa 0 mm - 714 W/m² -
1787847933 27.78° C 62% 1017.4 hPa 0 mm - 736 W/m² -
1787847633 27.78° C 61% 1017.4 hPa 0 mm - 718 W/m² -
1787847333 27.22° C 63% 1017.9 hPa 0 mm - 735 W/m² -
1787847029 27.22° C 64% 1017.8 hPa 0 mm - 675 W/m² -
1787846724 27.22° C 63% 1017.6 hPa 0 mm - 423 W/m² -
1787846420 26.67° C 66% 1017.9 hPa 0 mm - 306 W/m² -
1787846115 26.11° C 67% 1018 hPa 0 mm - 317 W/m² -
1787845810 26.67° C 66% 1018.3 hPa 0 mm - 527 W/m² -
1787845506 27.78° C 64% 1018.2 hPa 0 mm - 278 W/m² -
1787845201 26.67° C 65% 1018.1 hPa 0 mm - 724 W/m² -
1787844896 27.22° C 63% 1018 hPa 0 mm - 510 W/m² -
1787844595 26.67° C 65% 1018 hPa 0 mm - 708 W/m² -
1787844291 27.22° C 64% 1018.2 hPa 0 mm - 290 W/m² -
1787843989 27.22° C 65% 1018.2 hPa 0 mm - 760 W/m² -
1787843686 27.22° C 66% 1018.2 hPa 0 mm - 404 W/m² -
1787843381 26.11° C 68% 1018.2 hPa 0 mm - 725 W/m² -
1787843078 26.11° C 66% 1018.4 hPa 0 mm - 241 W/m² -
1787842777 26.67° C 66% 1018.3 hPa 0 mm - 578 W/m² -
1787842472 27.22° C 65% 1018.3 hPa 0 mm - 238 W/m² -

* Rain latest hour (hover to see other rain measurements)
** Current wind speed in m/s (hover to see current wind gust speed)